createdAt,value
2022-10-06T17:31:42.938Z,1.80
2022-10-06T17:34:14.320Z,1.70
2022-10-06T17:36:49.913Z,1.40
2022-10-06T17:39:19.227Z,1.70
2022-10-06T17:41:47.316Z,1.53
2022-10-06T17:44:23.484Z,1.70
2022-10-06T17:46:55.484Z,1.60
2022-10-06T17:49:24.476Z,1.40
2022-10-06T17:51:53.457Z,1.20
2022-10-06T20:16:42.619Z,1.93
2022-10-06T20:19:12.798Z,2.37
2022-10-06T20:21:40.184Z,2.50
2022-10-06T20:24:16.063Z,2.70
2022-10-06T20:26:43.606Z,2.50
2022-10-06T20:29:13.281Z,2.43
2022-10-06T20:31:49.402Z,2.60
2022-10-06T20:34:19.048Z,3.20
2022-10-06T20:36:49.544Z,2.50
2022-10-06T20:39:40.031Z,2.30
2022-10-06T20:42:12.184Z,2.77
2022-10-06T20:44:42.839Z,2.00
2022-10-06T20:47:11.082Z,2.37
2022-10-06T20:49:38.436Z,2.40
2022-10-06T20:52:06.165Z,2.50
2022-10-06T20:54:36.088Z,2.50
2022-10-06T20:57:05.116Z,2.67
2022-10-06T20:59:36.013Z,2.10
2022-10-06T21:02:04.761Z,3.07
2022-10-06T21:04:31.935Z,2.50
2022-10-06T21:07:01.707Z,3.00
2022-10-06T21:09:29.112Z,2.93
2022-10-06T21:11:59.049Z,3.00
2022-10-06T21:14:26.265Z,2.80
2022-10-06T21:16:53.354Z,2.63
2022-10-06T21:19:20.358Z,2.57
2022-10-06T21:21:53.530Z,2.77
2022-10-06T21:24:21.182Z,2.43
2022-10-06T21:26:48.753Z,3.40
2022-10-06T21:29:16.329Z,4.00
2022-10-06T21:31:45.027Z,3.07
2022-10-06T21:34:14.331Z,2.70
2022-10-06T21:36:43.331Z,3.03
2022-10-06T21:39:11.211Z,3.27
2022-10-06T21:41:39.595Z,3.97
2022-10-06T21:44:09.362Z,3.43
2022-10-06T21:46:37.614Z,3.57
2022-10-06T21:49:06.981Z,3.13
2022-10-06T21:51:34.400Z,3.90
2022-10-06T21:54:02.206Z,15.13
2022-10-06T21:56:31.917Z,15.63
2022-10-06T21:58:59.715Z,12.17
2022-10-06T22:01:29.451Z,6.63
2022-10-06T22:03:58.177Z,4.00
2022-10-06T22:06:25.199Z,3.00
2022-10-06T22:08:52.623Z,2.50
2022-10-06T22:11:25.522Z,2.97
2022-10-06T22:13:58.015Z,2.77
2022-10-06T22:16:28.582Z,2.90
2022-10-06T22:18:56.285Z,2.53
2022-10-06T22:21:28.736Z,2.20
2022-10-06T22:23:57.000Z,2.50
2022-10-06T22:26:25.312Z,3.33
2022-10-06T22:28:54.381Z,2.83
2022-10-06T22:31:25.761Z,2.53
2022-10-06T22:33:55.683Z,3.93
2022-10-06T22:36:23.002Z,3.60
2022-10-06T22:38:50.335Z,2.37
2022-10-06T22:41:17.681Z,2.13
2022-10-06T22:43:44.730Z,2.57
2022-10-06T22:46:12.497Z,2.60
2022-10-06T22:48:40.194Z,2.40
2022-10-06T22:51:07.469Z,3.07
2022-10-06T22:53:34.955Z,2.70
2022-10-06T22:56:04.027Z,2.63
2022-10-06T22:58:31.571Z,2.60
2022-10-06T23:00:58.593Z,2.63
2022-10-06T23:03:25.628Z,2.70
2022-10-06T23:06:00.755Z,2.77
2022-10-06T23:08:31.380Z,2.83
2022-10-06T23:11:17.067Z,2.70
2022-10-06T23:13:44.706Z,2.50
2022-10-06T23:16:14.125Z,2.80
2022-10-06T23:18:42.175Z,2.90
2022-10-06T23:21:11.629Z,2.70
2022-10-06T23:23:38.684Z,2.30
2022-10-06T23:26:07.567Z,2.50
2022-10-06T23:28:34.966Z,2.50
2022-10-06T23:31:03.319Z,2.40
2022-10-06T23:33:33.751Z,2.40
2022-10-06T23:36:06.698Z,2.53
2022-10-06T23:38:35.146Z,2.50
2022-10-06T23:41:02.295Z,2.17
2022-10-06T23:43:29.428Z,2.37
2022-10-06T23:45:56.455Z,2.20
2022-10-06T23:48:23.427Z,2.07
2022-10-06T23:51:01.991Z,2.07
2022-10-06T23:53:30.151Z,2.33
2022-10-06T23:55:57.317Z,2.53
2022-10-06T23:58:24.312Z,1.90
